createdAt,value
2018-06-12T00:00:02.695Z,13.6
2018-06-12T00:15:03.154Z,13.6
2018-06-12T00:30:02.967Z,13.6
2018-06-12T00:45:02.492Z,13.6
2018-06-12T01:00:02.838Z,13.7
2018-06-12T01:15:02.554Z,13.7
2018-06-12T01:30:02.968Z,13.7
2018-06-12T01:45:02.497Z,13.7
2018-06-12T02:00:03.002Z,13.6
2018-06-12T02:15:02.582Z,13.6
2018-06-12T02:30:03.106Z,13.6
2018-06-12T02:45:02.636Z,13.6
2018-06-12T03:00:03.042Z,13.6
2018-06-12T03:15:02.578Z,13.6
2018-06-12T03:30:03.089Z,13.5
2018-06-12T03:45:02.586Z,13.5
2018-06-12T04:00:03.116Z,13.5
2018-06-12T04:15:02.626Z,13.5
2018-06-12T04:30:03.120Z,13.5
2018-06-12T04:45:02.648Z,13.4
2018-06-12T05:00:03.130Z,13.4
2018-06-12T05:15:02.579Z,13.4
2018-06-12T05:30:02.990Z,13.4
2018-06-12T05:45:02.691Z,13.4
2018-06-12T06:00:03.208Z,13.4
2018-06-12T06:15:02.629Z,13.4
2018-06-12T06:30:03.108Z,13.3
2018-06-12T06:45:02.573Z,13.3
2018-06-12T07:00:03.010Z,13.3
2018-06-12T07:15:02.554Z,13.3
2018-06-12T07:30:03.126Z,13.3
2018-06-12T07:45:02.602Z,13.3
2018-06-12T08:00:03.415Z,13.3
2018-06-12T08:15:02.858Z,13.3
2018-06-12T08:30:03.498Z,13.3
2018-06-12T08:45:02.999Z,13.4
2018-06-12T09:00:02.407Z,13.4
2018-06-12T09:15:02.729Z,13.4
2018-06-12T09:30:03.224Z,13.4
2018-06-12T09:45:02.676Z,13.4
2018-06-12T10:00:03.089Z,13.4
2018-06-12T10:15:02.647Z,13.4
2018-06-12T10:30:03.105Z,13.4
2018-06-12T10:45:02.556Z,13.4
2018-06-12T11:00:02.959Z,13.4
2018-06-12T11:15:02.382Z,13.4
2018-06-12T11:30:02.939Z,13.4
2018-06-12T11:45:03.352Z,13.5
2018-06-12T12:00:02.853Z,13.6
2018-06-12T12:15:03.243Z,13.6
2018-06-12T12:30:03.193Z,13.6
2018-06-12T12:45:02.622Z,13.6
2018-06-12T13:00:03.153Z,13.6
2018-06-12T13:15:02.689Z,13.6
2018-06-12T13:30:03.233Z,13.6
2018-06-12T13:45:02.725Z,13.6
2018-06-12T14:00:03.109Z,13.6
2018-06-12T14:15:02.634Z,13.6
2018-06-12T14:30:03.026Z,13.6
2018-06-12T14:45:02.559Z,13.6
2018-06-12T15:00:03.148Z,13.6
2018-06-12T15:15:02.634Z,13.6
2018-06-12T15:30:03.013Z,13.6
2018-06-12T15:45:02.546Z,13.5
2018-06-12T16:00:02.988Z,13.5
2018-06-12T16:15:02.552Z,13.5
2018-06-12T16:30:03.063Z,13.4
2018-06-12T16:45:04.338Z,13.4
2018-06-12T17:02:37.764Z,13.4
2018-06-12T17:16:05.098Z,13.4
2018-06-12T17:32:15.443Z,13.4
2018-06-12T17:47:06.571Z,13.4
2018-06-12T18:00:02.964Z,13.4
2018-06-12T18:15:02.312Z,13.4
2018-06-12T18:30:02.690Z,13.4
2018-06-12T18:45:03.014Z,13.4
2018-06-12T19:00:02.386Z,13.3
2018-06-12T19:15:02.703Z,13.3
2018-06-12T19:30:03.130Z,13.2
2018-06-12T19:45:02.513Z,13.2
2018-06-12T20:00:02.871Z,13.2
2018-06-12T20:15:03.279Z,13.1
2018-06-12T20:30:02.731Z,13.1
2018-06-12T20:45:03.038Z,13.1
2018-06-12T21:00:02.442Z,13
2018-06-12T21:15:02.797Z,12.9
2018-06-12T21:30:03.250Z,12.9
2018-06-12T21:45:02.577Z,12.9
2018-06-12T22:00:02.918Z,12.8
2018-06-12T22:15:04.113Z,12.8
2018-06-12T22:30:02.501Z,12.8
2018-06-12T22:45:02.892Z,12.8
2018-06-12T23:00:03.240Z,12.7
2018-06-12T23:15:02.577Z,12.7
2018-06-12T23:30:03.013Z,12.7
2018-06-12T23:45:02.387Z,12.7
